sensor_id;sensor_type;location;lat;lon;timestamp;P1;durP1;ratioP1;P2;durP2;ratioP2
84796;SDS011;75028;51.374;21.078;2023-12-20T00:03:01;11.38;;;6.28;;
84796;SDS011;75028;51.374;21.078;2023-12-20T00:05:28;11.95;;;6.22;;
84796;SDS011;75028;51.374;21.078;2023-12-20T00:07:54;12.35;;;6.57;;
84796;SDS011;75028;51.374;21.078;2023-12-20T00:10:20;11.88;;;6.22;;
84796;SDS011;75028;51.374;21.078;2023-12-20T00:12:46;13.82;;;7.07;;
84796;SDS011;75028;51.374;21.078;2023-12-20T00:15:12;10.82;;;6.03;;
84796;SDS011;75028;51.374;21.078;2023-12-20T00:17:38;12.48;;;6.97;;
84796;SDS011;75028;51.374;21.078;2023-12-20T00:20:04;10.88;;;7.00;;
84796;SDS011;75028;51.374;21.078;2023-12-20T00:22:31;11.50;;;6.68;;
84796;SDS011;75028;51.374;21.078;2023-12-20T00:24:58;14.70;;;6.97;;
84796;SDS011;75028;51.374;21.078;2023-12-20T00:27:23;11.48;;;5.80;;
84796;SDS011;75028;51.374;21.078;2023-12-20T00:32:16;12.95;;;7.18;;
84796;SDS011;75028;51.374;21.078;2023-12-20T00:34:43;10.73;;;7.15;;
84796;SDS011;75028;51.374;21.078;2023-12-20T00:37:08;14.07;;;7.43;;
84796;SDS011;75028;51.374;21.078;2023-12-20T00:39:35;13.40;;;7.20;;
84796;SDS011;75028;51.374;21.078;2023-12-20T00:42:00;12.32;;;7.25;;
84796;SDS011;75028;51.374;21.078;2023-12-20T00:44:27;13.57;;;7.10;;
84796;SDS011;75028;51.374;21.078;2023-12-20T00:46:53;15.40;;;7.50;;
84796;SDS011;75028;51.374;21.078;2023-12-20T00:49:19;12.02;;;6.57;;
84796;SDS011;75028;51.374;21.078;2023-12-20T00:51:45;13.30;;;7.47;;
84796;SDS011;75028;51.374;21.078;2023-12-20T00:54:12;14.98;;;7.65;;
84796;SDS011;75028;51.374;21.078;2023-12-20T00:56:39;12.45;;;7.28;;
84796;SDS011;75028;51.374;21.078;2023-12-20T00:59:05;16.55;;;7.57;;
84796;SDS011;75028;51.374;21.078;2023-12-20T01:01:31;11.80;;;6.82;;
84796;SDS011;75028;51.374;21.078;2023-12-20T01:03:58;13.50;;;7.15;;
84796;SDS011;75028;51.374;21.078;2023-12-20T01:06:24;11.45;;;7.20;;
84796;SDS011;75028;51.374;21.078;2023-12-20T01:08:51;16.55;;;7.88;;
84796;SDS011;75028;51.374;21.078;2023-12-20T01:11:17;13.02;;;7.32;;
84796;SDS011;75028;51.374;21.078;2023-12-20T01:13:43;15.48;;;7.85;;
84796;SDS011;75028;51.374;21.078;2023-12-20T01:16:10;12.65;;;7.72;;
84796;SDS011;75028;51.374;21.078;2023-12-20T01:18:37;12.65;;;7.20;;
84796;SDS011;75028;51.374;21.078;2023-12-20T01:21:04;15.82;;;7.55;;
84796;SDS011;75028;51.374;21.078;2023-12-20T01:23:31;13.50;;;7.60;;
84796;SDS011;75028;51.374;21.078;2023-12-20T01:25:58;15.57;;;7.78;;
84796;SDS011;75028;51.374;21.078;2023-12-20T01:28:25;13.90;;;8.23;;
84796;SDS011;75028;51.374;21.078;2023-12-20T01:33:18;13.10;;;7.47;;
84796;SDS011;75028;51.374;21.078;2023-12-20T01:35:44;21.33;;;13.30;;
84796;SDS011;75028;51.374;21.078;2023-12-20T01:38:10;11.07;;;6.25;;
84796;SDS011;75028;51.374;21.078;2023-12-20T01:40:36;14.48;;;7.60;;
84796;SDS011;75028;51.374;21.078;2023-12-20T01:43:08;14.45;;;8.23;;
84796;SDS011;75028;51.374;21.078;2023-12-20T01:45:35;15.48;;;8.27;;
84796;SDS011;75028;51.374;21.078;2023-12-20T01:48:01;14.85;;;7.80;;
84796;SDS011;75028;51.374;21.078;2023-12-20T01:50:29;15.18;;;8.93;;
84796;SDS011;75028;51.374;21.078;2023-12-20T01:52:58;16.67;;;8.88;;
84796;SDS011;75028;51.374;21.078;2023-12-20T01:55:27;15.73;;;8.52;;
84796;SDS011;75028;51.374;21.078;2023-12-20T01:57:57;17.65;;;9.23;;
84796;SDS011;75028;51.374;21.078;2023-12-20T02:00:24;13.10;;;8.07;;
84796;SDS011;75028;51.374;21.078;2023-12-20T02:02:53;15.60;;;8.05;;
84796;SDS011;75028;51.374;21.078;2023-12-20T02:05:21;14.50;;;8.93;;
84796;SDS011;75028;51.374;21.078;2023-12-20T02:07:48;17.77;;;9.18;;
84796;SDS011;75028;51.374;21.078;2023-12-20T02:10:14;16.23;;;9.00;;
84796;SDS011;75028;51.374;21.078;2023-12-20T02:12:41;14.75;;;8.60;;
84796;SDS011;75028;51.374;21.078;2023-12-20T02:15:07;14.45;;;8.80;;
84796;SDS011;75028;51.374;21.078;2023-12-20T02:17:34;14.35;;;8.50;;
84796;SDS011;75028;51.374;21.078;2023-12-20T02:20:00;15.60;;;9.05;;
84796;SDS011;75028;51.374;21.078;2023-12-20T02:22:26;15.77;;;9.20;;
84796;SDS011;75028;51.374;21.078;2023-12-20T02:24:52;14.73;;;9.05;;
84796;SDS011;75028;51.374;21.078;2023-12-20T02:27:18;15.18;;;9.20;;
84796;SDS011;75028;51.374;21.078;2023-12-20T02:29:46;16.17;;;9.25;;
84796;SDS011;75028;51.374;21.078;2023-12-20T02:32:14;16.85;;;8.57;;
84796;SDS011;75028;51.374;21.078;2023-12-20T02:34:39;13.77;;;8.35;;
84796;SDS011;75028;51.374;21.078;2023-12-20T02:37:06;15.20;;;8.93;;
84796;SDS011;75028;51.374;21.078;2023-12-20T02:39:32;16.77;;;10.25;;
84796;SDS011;75028;51.374;21.078;2023-12-20T02:41:59;19.42;;;10.40;;
84796;SDS011;75028;51.374;21.078;2023-12-20T02:44:25;17.25;;;9.75;;
84796;SDS011;75028;51.374;21.078;2023-12-20T02:46:53;14.73;;;9.00;;
84796;SDS011;75028;51.374;21.078;2023-12-20T02:49:19;18.05;;;9.20;;
84796;SDS011;75028;51.374;21.078;2023-12-20T02:51:45;13.55;;;9.00;;
84796;SDS011;75028;51.374;21.078;2023-12-20T02:56:38;15.18;;;8.73;;
84796;SDS011;75028;51.374;21.078;2023-12-20T02:59:04;14.25;;;8.55;;
84796;SDS011;75028;51.374;21.078;2023-12-20T03:01:34;15.15;;;10.02;;
84796;SDS011;75028;51.374;21.078;2023-12-20T03:04:01;14.27;;;8.90;;
84796;SDS011;75028;51.374;21.078;2023-12-20T03:06:27;18.48;;;9.55;;
84796;SDS011;75028;51.374;21.078;2023-12-20T03:08:53;14.00;;;9.68;;
84796;SDS011;75028;51.374;21.078;2023-12-20T03:11:19;15.55;;;9.43;;
84796;SDS011;75028;51.374;21.078;2023-12-20T03:13:45;16.27;;;10.18;;
84796;SDS011;75028;51.374;21.078;2023-12-20T03:16:12;16.40;;;9.52;;
84796;SDS011;75028;51.374;21.078;2023-12-20T03:18:39;14.05;;;8.65;;
84796;SDS011;75028;51.374;21.078;2023-12-20T03:21:05;15.60;;;10.20;;
84796;SDS011;75028;51.374;21.078;2023-12-20T03:23:31;18.52;;;10.23;;
84796;SDS011;75028;51.374;21.078;2023-12-20T03:25:59;16.35;;;10.35;;
84796;SDS011;75028;51.374;21.078;2023-12-20T03:28:26;17.27;;;10.50;;
84796;SDS011;75028;51.374;21.078;2023-12-20T03:30:53;16.05;;;9.48;;
84796;SDS011;75028;51.374;21.078;2023-12-20T03:33:19;13.82;;;9.93;;
84796;SDS011;75028;51.374;21.078;2023-12-20T03:35:45;15.80;;;10.48;;
84796;SDS011;75028;51.374;21.078;2023-12-20T03:38:11;18.17;;;10.70;;
84796;SDS011;75028;51.374;21.078;2023-12-20T03:40:37;21.17;;;12.48;;
84796;SDS011;75028;51.374;21.078;2023-12-20T03:43:03;17.98;;;9.88;;
84796;SDS011;75028;51.374;21.078;2023-12-20T03:45:29;15.35;;;9.85;;
84796;SDS011;75028;51.374;21.078;2023-12-20T03:47:55;16.50;;;10.75;;
84796;SDS011;75028;51.374;21.078;2023-12-20T03:50:22;15.70;;;9.80;;
84796;SDS011;75028;51.374;21.078;2023-12-20T03:52:48;19.15;;;10.93;;
84796;SDS011;75028;51.374;21.078;2023-12-20T03:55:15;18.02;;;10.35;;
84796;SDS011;75028;51.374;21.078;2023-12-20T03:57:41;17.23;;;10.35;;
84796;SDS011;75028;51.374;21.078;2023-12-20T04:02:36;13.95;;;9.32;;
84796;SDS011;75028;51.374;21.078;2023-12-20T04:05:06;15.90;;;10.32;;
84796;SDS011;75028;51.374;21.078;2023-12-20T04:07:33;14.52;;;9.85;;
84796;SDS011;75028;51.374;21.078;2023-12-20T04:10:00;15.52;;;10.63;;
84796;SDS011;75028;51.374;21.078;2023-12-20T04:12:27;18.50;;;10.07;;
84796;SDS011;75028;51.374;21.078;2023-12-20T04:14:54;17.80;;;10.68;;
84796;SDS011;75028;51.374;21.078;2023-12-20T04:17:20;17.63;;;9.98;;
84796;SDS011;75028;51.374;21.078;2023-12-20T04:19:48;17.20;;;10.05;;
84796;SDS011;75028;51.374;21.078;2023-12-20T04:22:15;15.95;;;10.05;;
84796;SDS011;75028;51.374;21.078;2023-12-20T04:24:42;17.10;;;10.80;;
84796;SDS011;75028;51.374;21.078;2023-12-20T04:27:08;15.20;;;9.65;;
84796;SDS011;75028;51.374;21.078;2023-12-20T04:29:34;17.38;;;10.18;;
84796;SDS011;75028;51.374;21.078;2023-12-20T04:32:01;19.75;;;11.45;;
84796;SDS011;75028;51.374;21.078;2023-12-20T04:34:27;17.08;;;11.15;;
84796;SDS011;75028;51.374;21.078;2023-12-20T04:36:53;17.92;;;10.50;;
84796;SDS011;75028;51.374;21.078;2023-12-20T04:39:19;16.92;;;10.25;;
84796;SDS011;75028;51.374;21.078;2023-12-20T04:41:45;16.45;;;9.68;;
84796;SDS011;75028;51.374;21.078;2023-12-20T04:44:13;14.25;;;8.88;;
84796;SDS011;75028;51.374;21.078;2023-12-20T04:46:39;17.55;;;9.05;;
84796;SDS011;75028;51.374;21.078;2023-12-20T04:49:05;13.63;;;8.10;;
84796;SDS011;75028;51.374;21.078;2023-12-20T04:51:34;14.13;;;8.68;;
84796;SDS011;75028;51.374;21.078;2023-12-20T04:54:01;18.67;;;9.95;;
84796;SDS011;75028;51.374;21.078;2023-12-20T04:56:27;17.83;;;10.70;;
84796;SDS011;75028;51.374;21.078;2023-12-20T04:58:53;18.88;;;10.02;;
84796;SDS011;75028;51.374;21.078;2023-12-20T05:01:20;14.07;;;8.75;;
84796;SDS011;75028;51.374;21.078;2023-12-20T05:03:48;15.85;;;10.45;;
84796;SDS011;75028;51.374;21.078;2023-12-20T05:06:14;16.83;;;9.43;;
84796;SDS011;75028;51.374;21.078;2023-12-20T05:08:40;15.23;;;9.27;;
84796;SDS011;75028;51.374;21.078;2023-12-20T05:13:32;13.20;;;8.40;;
84796;SDS011;75028;51.374;21.078;2023-12-20T05:15:58;14.88;;;8.93;;
84796;SDS011;75028;51.374;21.078;2023-12-20T05:18:24;15.35;;;9.60;;
84796;SDS011;75028;51.374;21.078;2023-12-20T05:20:50;18.15;;;9.50;;
84796;SDS011;75028;51.374;21.078;2023-12-20T05:23:17;16.40;;;10.05;;
84796;SDS011;75028;51.374;21.078;2023-12-20T05:28:09;23.55;;;10.02;;
84796;SDS011;75028;51.374;21.078;2023-12-20T05:30:35;17.77;;;10.05;;
84796;SDS011;75028;51.374;21.078;2023-12-20T05:33:01;13.95;;;7.88;;
84796;SDS011;75028;51.374;21.078;2023-12-20T05:35:27;13.02;;;8.05;;
84796;SDS011;75028;51.374;21.078;2023-12-20T05:37:53;14.32;;;7.68;;
84796;SDS011;75028;51.374;21.078;2023-12-20T05:40:19;11.80;;;7.50;;
84796;SDS011;75028;51.374;21.078;2023-12-20T05:42:45;9.63;;;7.25;;
84796;SDS011;75028;51.374;21.078;2023-12-20T05:45:11;13.90;;;8.30;;
84796;SDS011;75028;51.374;21.078;2023-12-20T05:47:37;14.90;;;8.55;;
84796;SDS011;75028;51.374;21.078;2023-12-20T05:50:03;14.38;;;8.20;;
84796;SDS011;75028;51.374;21.078;2023-12-20T05:52:29;14.43;;;8.27;;
84796;SDS011;75028;51.374;21.078;2023-12-20T05:54:56;13.45;;;8.10;;
84796;SDS011;75028;51.374;21.078;2023-12-20T05:57:23;11.48;;;8.02;;
84796;SDS011;75028;51.374;21.078;2023-12-20T05:59:49;12.80;;;7.90;;
84796;SDS011;75028;51.374;21.078;2023-12-20T06:02:15;13.20;;;8.07;;
84796;SDS011;75028;51.374;21.078;2023-12-20T06:04:42;13.68;;;7.63;;
84796;SDS011;75028;51.374;21.078;2023-12-20T06:07:11;10.95;;;7.75;;
84796;SDS011;75028;51.374;21.078;2023-12-20T06:09:37;12.65;;;8.35;;
84796;SDS011;75028;51.374;21.078;2023-12-20T06:12:03;13.82;;;7.45;;
84796;SDS011;75028;51.374;21.078;2023-12-20T06:14:30;14.45;;;9.00;;
84796;SDS011;75028;51.374;21.078;2023-12-20T06:16:59;14.45;;;9.30;;
84796;SDS011;75028;51.374;21.078;2023-12-20T06:19:27;12.88;;;7.30;;
84796;SDS011;75028;51.374;21.078;2023-12-20T06:21:53;10.73;;;6.75;;
84796;SDS011;75028;51.374;21.078;2023-12-20T06:24:19;13.48;;;6.72;;
84796;SDS011;75028;51.374;21.078;2023-12-20T06:26:45;11.35;;;6.88;;
84796;SDS011;75028;51.374;21.078;2023-12-20T06:31:37;11.65;;;6.80;;
84796;SDS011;75028;51.374;21.078;2023-12-20T06:36:29;14.70;;;8.00;;
84796;SDS011;75028;51.374;21.078;2023-12-20T06:38:56;15.38;;;8.50;;
84796;SDS011;75028;51.374;21.078;2023-12-20T06:41:21;13.82;;;8.48;;
84796;SDS011;75028;51.374;21.078;2023-12-20T06:43:50;12.90;;;8.43;;
84796;SDS011;75028;51.374;21.078;2023-12-20T06:46:17;12.07;;;7.68;;
84796;SDS011;75028;51.374;21.078;2023-12-20T06:48:43;13.55;;;8.15;;
84796;SDS011;75028;51.374;21.078;2023-12-20T06:51:15;15.13;;;8.18;;
84796;SDS011;75028;51.374;21.078;2023-12-20T06:53:42;12.27;;;8.20;;
84796;SDS011;75028;51.374;21.078;2023-12-20T06:56:10;13.27;;;8.43;;
84796;SDS011;75028;51.374;21.078;2023-12-20T06:58:37;13.85;;;8.73;;
84796;SDS011;75028;51.374;21.078;2023-12-20T07:01:03;16.25;;;8.32;;
84796;SDS011;75028;51.374;21.078;2023-12-20T07:03:30;12.30;;;8.05;;
84796;SDS011;75028;51.374;21.078;2023-12-20T07:05:56;15.70;;;8.90;;
84796;SDS011;75028;51.374;21.078;2023-12-20T07:08:22;14.13;;;8.07;;
84796;SDS011;75028;51.374;21.078;2023-12-20T07:10:49;14.35;;;8.20;;
84796;SDS011;75028;51.374;21.078;2023-12-20T07:15:41;15.35;;;8.23;;
84796;SDS011;75028;51.374;21.078;2023-12-20T07:18:07;12.40;;;7.97;;
84796;SDS011;75028;51.374;21.078;2023-12-20T07:20:33;15.70;;;8.32;;
84796;SDS011;75028;51.374;21.078;2023-12-20T07:25:25;10.73;;;6.80;;
84796;SDS011;75028;51.374;21.078;2023-12-20T07:27:51;14.68;;;7.95;;
84796;SDS011;75028;51.374;21.078;2023-12-20T07:30:18;15.55;;;8.50;;
84796;SDS011;75028;51.374;21.078;2023-12-20T07:32:45;17.65;;;10.52;;
84796;SDS011;75028;51.374;21.078;2023-12-20T07:35:11;14.73;;;9.05;;
84796;SDS011;75028;51.374;21.078;2023-12-20T07:40:03;14.25;;;8.48;;
84796;SDS011;75028;51.374;21.078;2023-12-20T07:44:55;15.82;;;8.43;;
84796;SDS011;75028;51.374;21.078;2023-12-20T07:47:21;10.18;;;6.80;;
84796;SDS011;75028;51.374;21.078;2023-12-20T07:49:48;13.63;;;7.03;;
84796;SDS011;75028;51.374;21.078;2023-12-20T07:52:14;12.48;;;5.65;;
84796;SDS011;75028;51.374;21.078;2023-12-20T07:54:40;10.02;;;6.90;;
84796;SDS011;75028;51.374;21.078;2023-12-20T07:57:07;8.27;;;5.70;;
84796;SDS011;75028;51.374;21.078;2023-12-20T07:59:32;9.75;;;6.43;;
84796;SDS011;75028;51.374;21.078;2023-12-20T08:01:59;11.77;;;7.20;;
84796;SDS011;75028;51.374;21.078;2023-12-20T08:04:26;11.52;;;7.22;;
84796;SDS011;75028;51.374;21.078;2023-12-20T08:06:53;7.50;;;4.80;;
84796;SDS011;75028;51.374;21.078;2023-12-20T08:09:19;8.18;;;5.45;;
84796;SDS011;75028;51.374;21.078;2023-12-20T08:11:46;8.07;;;4.15;;
84796;SDS011;75028;51.374;21.078;2023-12-20T08:14:12;6.80;;;3.65;;
84796;SDS011;75028;51.374;21.078;2023-12-20T08:19:04;7.25;;;4.13;;
84796;SDS011;75028;51.374;21.078;2023-12-20T08:21:31;6.35;;;3.92;;
84796;SDS011;75028;51.374;21.078;2023-12-20T08:23:57;7.13;;;4.10;;
84796;SDS011;75028;51.374;21.078;2023-12-20T08:28:49;6.50;;;4.13;;
84796;SDS011;75028;51.374;21.078;2023-12-20T08:31:16;13.68;;;8.27;;
84796;SDS011;75028;51.374;21.078;2023-12-20T08:33:46;10.38;;;5.30;;
84796;SDS011;75028;51.374;21.078;2023-12-20T08:36:13;7.35;;;4.32;;
84796;SDS011;75028;51.374;21.078;2023-12-20T08:38:40;6.13;;;3.80;;
84796;SDS011;75028;51.374;21.078;2023-12-20T08:43:32;6.25;;;3.58;;
84796;SDS011;75028;51.374;21.078;2023-12-20T08:46:00;6.15;;;3.58;;
84796;SDS011;75028;51.374;21.078;2023-12-20T08:48:26;5.50;;;3.33;;
84796;SDS011;75028;51.374;21.078;2023-12-20T08:50:52;6.38;;;3.75;;
84796;SDS011;75028;51.374;21.078;2023-12-20T08:53:18;7.75;;;3.67;;
84796;SDS011;75028;51.374;21.078;2023-12-20T08:55:45;7.47;;;4.43;;
84796;SDS011;75028;51.374;21.078;2023-12-20T08:58:11;7.20;;;4.15;;
84796;SDS011;75028;51.374;21.078;2023-12-20T09:00:38;7.43;;;4.68;;
84796;SDS011;75028;51.374;21.078;2023-12-20T09:03:04;7.72;;;4.18;;
84796;SDS011;75028;51.374;21.078;2023-12-20T09:05:30;10.52;;;5.18;;
84796;SDS011;75028;51.374;21.078;2023-12-20T09:07:57;8.65;;;4.70;;
84796;SDS011;75028;51.374;21.078;2023-12-20T09:12:52;7.75;;;4.03;;
84796;SDS011;75028;51.374;21.078;2023-12-20T09:15:25;7.75;;;4.25;;
84796;SDS011;75028;51.374;21.078;2023-12-20T09:17:52;5.07;;;3.42;;
84796;SDS011;75028;51.374;21.078;2023-12-20T09:20:19;4.78;;;3.20;;
84796;SDS011;75028;51.374;21.078;2023-12-20T09:22:45;5.43;;;3.15;;
84796;SDS011;75028;51.374;21.078;2023-12-20T09:25:11;4.53;;;3.15;;
84796;SDS011;75028;51.374;21.078;2023-12-20T09:27:38;5.45;;;3.15;;
84796;SDS011;75028;51.374;21.078;2023-12-20T09:30:04;5.68;;;3.33;;
84796;SDS011;75028;51.374;21.078;2023-12-20T09:32:31;5.88;;;3.25;;
84796;SDS011;75028;51.374;21.078;2023-12-20T09:34:57;6.35;;;3.55;;
84796;SDS011;75028;51.374;21.078;2023-12-20T09:37:26;8.55;;;3.38;;
84796;SDS011;75028;51.374;21.078;2023-12-20T09:39:53;5.72;;;3.72;;
84796;SDS011;75028;51.374;21.078;2023-12-20T09:42:29;5.05;;;3.22;;
84796;SDS011;75028;51.374;21.078;2023-12-20T09:45:04;6.32;;;3.80;;
84796;SDS011;75028;51.374;21.078;2023-12-20T09:47:34;8.20;;;3.20;;
84796;SDS011;75028;51.374;21.078;2023-12-20T09:50:02;5.38;;;3.03;;
84796;SDS011;75028;51.374;21.078;2023-12-20T09:52:28;5.20;;;3.33;;
84796;SDS011;75028;51.374;21.078;2023-12-20T09:54:56;4.63;;;3.20;;
84796;SDS011;75028;51.374;21.078;2023-12-20T09:57:22;8.02;;;3.50;;
84796;SDS011;75028;51.374;21.078;2023-12-20T09:59:48;5.60;;;3.92;;
84796;SDS011;75028;51.374;21.078;2023-12-20T10:02:15;4.93;;;3.40;;
84796;SDS011;75028;51.374;21.078;2023-12-20T10:04:47;7.28;;;4.28;;
84796;SDS011;75028;51.374;21.078;2023-12-20T10:07:13;8.38;;;4.30;;
84796;SDS011;75028;51.374;21.078;2023-12-20T10:09:40;7.55;;;3.55;;
84796;SDS011;75028;51.374;21.078;2023-12-20T10:12:07;8.48;;;3.50;;
84796;SDS011;75028;51.374;21.078;2023-12-20T10:14:34;6.00;;;3.42;;
84796;SDS011;75028;51.374;21.078;2023-12-20T10:17:03;6.68;;;3.67;;
84796;SDS011;75028;51.374;21.078;2023-12-20T10:19:30;5.47;;;2.95;;
84796;SDS011;75028;51.374;21.078;2023-12-20T10:21:59;6.20;;;2.92;;
84796;SDS011;75028;51.374;21.078;2023-12-20T10:24:28;8.20;;;3.05;;
84796;SDS011;75028;51.374;21.078;2023-12-20T10:27:01;4.70;;;2.88;;
84796;SDS011;75028;51.374;21.078;2023-12-20T10:29:32;4.45;;;2.50;;
84796;SDS011;75028;51.374;21.078;2023-12-20T10:32:15;4.88;;;2.83;;
84796;SDS011;75028;51.374;21.078;2023-12-20T10:34:47;4.15;;;2.75;;
84796;SDS011;75028;51.374;21.078;2023-12-20T10:37:13;4.45;;;2.50;;
84796;SDS011;75028;51.374;21.078;2023-12-20T10:39:39;6.35;;;3.10;;
84796;SDS011;75028;51.374;21.078;2023-12-20T10:42:08;3.67;;;2.63;;
84796;SDS011;75028;51.374;21.078;2023-12-20T10:44:37;6.10;;;3.85;;
84796;SDS011;75028;51.374;21.078;2023-12-20T10:47:03;4.00;;;2.80;;
84796;SDS011;75028;51.374;21.078;2023-12-20T10:49:30;4.30;;;3.00;;
84796;SDS011;75028;51.374;21.078;2023-12-20T10:52:01;5.13;;;3.15;;
84796;SDS011;75028;51.374;21.078;2023-12-20T10:54:30;3.95;;;2.70;;
84796;SDS011;75028;51.374;21.078;2023-12-20T10:56:55;4.20;;;2.72;;
84796;SDS011;75028;51.374;21.078;2023-12-20T10:59:24;4.60;;;2.60;;
84796;SDS011;75028;51.374;21.078;2023-12-20T11:01:50;4.60;;;2.63;;
84796;SDS011;75028;51.374;21.078;2023-12-20T11:04:25;4.90;;;2.72;;
84796;SDS011;75028;51.374;21.078;2023-12-20T11:07:21;5.63;;;3.60;;
84796;SDS011;75028;51.374;21.078;2023-12-20T11:09:59;5.85;;;3.75;;
84796;SDS011;75028;51.374;21.078;2023-12-20T11:15:10;7.53;;;5.00;;
84796;SDS011;75028;51.374;21.078;2023-12-20T11:17:36;9.93;;;4.95;;
84796;SDS011;75028;51.374;21.078;2023-12-20T11:20:05;6.95;;;3.42;;
84796;SDS011;75028;51.374;21.078;2023-12-20T11:22:33;4.38;;;2.65;;
84796;SDS011;75028;51.374;21.078;2023-12-20T11:25:04;6.95;;;3.67;;
84796;SDS011;75028;51.374;21.078;2023-12-20T11:27:36;3.78;;;2.72;;
84796;SDS011;75028;51.374;21.078;2023-12-20T11:30:08;4.55;;;2.45;;
84796;SDS011;75028;51.374;21.078;2023-12-20T11:32:35;4.13;;;2.60;;
84796;SDS011;75028;51.374;21.078;2023-12-20T11:37:37;3.80;;;2.28;;
84796;SDS011;75028;51.374;21.078;2023-12-20T11:40:07;4.32;;;2.90;;
84796;SDS011;75028;51.374;21.078;2023-12-20T11:42:39;4.43;;;2.92;;
84796;SDS011;75028;51.374;21.078;2023-12-20T11:45:16;6.68;;;3.83;;
84796;SDS011;75028;51.374;21.078;2023-12-20T11:47:48;7.88;;;3.47;;
84796;SDS011;75028;51.374;21.078;2023-12-20T11:50:22;7.72;;;3.80;;
84796;SDS011;75028;51.374;21.078;2023-12-20T11:52:48;6.28;;;4.00;;
84796;SDS011;75028;51.374;21.078;2023-12-20T11:55:15;6.38;;;3.60;;
84796;SDS011;75028;51.374;21.078;2023-12-20T11:57:42;10.40;;;4.30;;
84796;SDS011;75028;51.374;21.078;2023-12-20T12:00:09;5.55;;;3.53;;
84796;SDS011;75028;51.374;21.078;2023-12-20T12:05:02;9.57;;;3.40;;
84796;SDS011;75028;51.374;21.078;2023-12-20T12:07:31;7.03;;;3.75;;
84796;SDS011;75028;51.374;21.078;2023-12-20T12:09:57;6.82;;;3.70;;
84796;SDS011;75028;51.374;21.078;2023-12-20T12:12:24;6.68;;;3.65;;
84796;SDS011;75028;51.374;21.078;2023-12-20T12:14:53;5.78;;;3.83;;
84796;SDS011;75028;51.374;21.078;2023-12-20T12:17:20;6.40;;;3.88;;
84796;SDS011;75028;51.374;21.078;2023-12-20T12:19:46;6.65;;;3.63;;
84796;SDS011;75028;51.374;21.078;2023-12-20T12:22:12;8.07;;;4.22;;
84796;SDS011;75028;51.374;21.078;2023-12-20T12:24:41;7.38;;;3.95;;
84796;SDS011;75028;51.374;21.078;2023-12-20T12:27:11;6.38;;;3.53;;
84796;SDS011;75028;51.374;21.078;2023-12-20T12:30:00;9.55;;;4.72;;
84796;SDS011;75028;51.374;21.078;2023-12-20T12:32:29;6.93;;;3.67;;
84796;SDS011;75028;51.374;21.078;2023-12-20T12:34:56;6.72;;;3.13;;
84796;SDS011;75028;51.374;21.078;2023-12-20T12:37:22;6.15;;;3.10;;
84796;SDS011;75028;51.374;21.078;2023-12-20T12:39:50;7.03;;;3.28;;
84796;SDS011;75028;51.374;21.078;2023-12-20T12:42:18;7.63;;;4.00;;
84796;SDS011;75028;51.374;21.078;2023-12-20T12:44:44;8.13;;;3.80;;
84796;SDS011;75028;51.374;21.078;2023-12-20T12:47:10;10.23;;;5.35;;
84796;SDS011;75028;51.374;21.078;2023-12-20T12:49:36;12.20;;;6.22;;
84796;SDS011;75028;51.374;21.078;2023-12-20T12:52:02;7.95;;;4.43;;
84796;SDS011;75028;51.374;21.078;2023-12-20T12:56:54;7.68;;;3.20;;
84796;SDS011;75028;51.374;21.078;2023-12-20T13:01:47;5.30;;;3.25;;
84796;SDS011;75028;51.374;21.078;2023-12-20T13:04:14;5.95;;;2.92;;
84796;SDS011;75028;51.374;21.078;2023-12-20T13:06:41;6.28;;;3.60;;
84796;SDS011;75028;51.374;21.078;2023-12-20T13:09:08;10.45;;;5.05;;
84796;SDS011;75028;51.374;21.078;2023-12-20T13:11:35;11.23;;;5.15;;
84796;SDS011;75028;51.374;21.078;2023-12-20T13:14:01;8.18;;;4.60;;
84796;SDS011;75028;51.374;21.078;2023-12-20T13:16:29;9.02;;;4.90;;
84796;SDS011;75028;51.374;21.078;2023-12-20T13:18:55;11.73;;;5.75;;
84796;SDS011;75028;51.374;21.078;2023-12-20T13:21:21;10.15;;;5.53;;
84796;SDS011;75028;51.374;21.078;2023-12-20T13:23:47;8.55;;;4.97;;
84796;SDS011;75028;51.374;21.078;2023-12-20T13:26:14;8.82;;;4.72;;
84796;SDS011;75028;51.374;21.078;2023-12-20T13:28:40;8.73;;;5.13;;
84796;SDS011;75028;51.374;21.078;2023-12-20T13:31:06;11.65;;;5.22;;
84796;SDS011;75028;51.374;21.078;2023-12-20T13:33:32;7.40;;;3.97;;
84796;SDS011;75028;51.374;21.078;2023-12-20T13:35:58;7.13;;;4.28;;
84796;SDS011;75028;51.374;21.078;2023-12-20T13:38:25;8.15;;;4.47;;
84796;SDS011;75028;51.374;21.078;2023-12-20T13:40:51;7.40;;;4.50;;
84796;SDS011;75028;51.374;21.078;2023-12-20T13:43:19;11.38;;;5.60;;
84796;SDS011;75028;51.374;21.078;2023-12-20T13:45:48;13.60;;;4.97;;
84796;SDS011;75028;51.374;21.078;2023-12-20T13:48:17;9.57;;;4.78;;
84796;SDS011;75028;51.374;21.078;2023-12-20T13:50:45;11.95;;;5.68;;
84796;SDS011;75028;51.374;21.078;2023-12-20T13:53:12;13.63;;;7.70;;
84796;SDS011;75028;51.374;21.078;2023-12-20T13:55:38;14.90;;;8.57;;
84796;SDS011;75028;51.374;21.078;2023-12-20T14:00:30;13.07;;;7.28;;
84796;SDS011;75028;51.374;21.078;2023-12-20T14:02:56;14.70;;;7.40;;
84796;SDS011;75028;51.374;21.078;2023-12-20T14:05:22;14.23;;;7.15;;
84796;SDS011;75028;51.374;21.078;2023-12-20T14:07:49;16.67;;;7.43;;
84796;SDS011;75028;51.374;21.078;2023-12-20T14:10:15;12.23;;;7.03;;
84796;SDS011;75028;51.374;21.078;2023-12-20T14:12:42;11.25;;;6.72;;
84796;SDS011;75028;51.374;21.078;2023-12-20T14:15:09;11.57;;;5.88;;
84796;SDS011;75028;51.374;21.078;2023-12-20T14:17:37;10.82;;;6.78;;
84796;SDS011;75028;51.374;21.078;2023-12-20T14:20:05;8.30;;;5.65;;
84796;SDS011;75028;51.374;21.078;2023-12-20T14:22:35;10.38;;;6.03;;
84796;SDS011;75028;51.374;21.078;2023-12-20T14:25:02;14.57;;;7.47;;
84796;SDS011;75028;51.374;21.078;2023-12-20T14:27:28;12.85;;;7.30;;
84796;SDS011;75028;51.374;21.078;2023-12-20T14:29:54;13.10;;;7.70;;
84796;SDS011;75028;51.374;21.078;2023-12-20T14:34:46;17.38;;;8.30;;
84796;SDS011;75028;51.374;21.078;2023-12-20T14:37:12;15.95;;;8.52;;
84796;SDS011;75028;51.374;21.078;2023-12-20T14:39:38;21.17;;;11.32;;
84796;SDS011;75028;51.374;21.078;2023-12-20T14:42:07;13.73;;;8.55;;
84796;SDS011;75028;51.374;21.078;2023-12-20T14:44:42;15.50;;;7.47;;
84796;SDS011;75028;51.374;21.078;2023-12-20T14:47:09;22.45;;;9.63;;
84796;SDS011;75028;51.374;21.078;2023-12-20T14:49:35;13.77;;;6.90;;
84796;SDS011;75028;51.374;21.078;2023-12-20T14:52:03;16.73;;;7.32;;
84796;SDS011;75028;51.374;21.078;2023-12-20T14:54:29;15.98;;;7.00;;
84796;SDS011;75028;51.374;21.078;2023-12-20T14:56:55;13.45;;;6.95;;
84796;SDS011;75028;51.374;21.078;2023-12-20T14:59:23;16.40;;;8.20;;
84796;SDS011;75028;51.374;21.078;2023-12-20T15:01:49;8.55;;;5.30;;
84796;SDS011;75028;51.374;21.078;2023-12-20T15:04:16;7.85;;;4.75;;
84796;SDS011;75028;51.374;21.078;2023-12-20T15:06:43;12.35;;;4.97;;
84796;SDS011;75028;51.374;21.078;2023-12-20T15:09:11;13.55;;;6.53;;
84796;SDS011;75028;51.374;21.078;2023-12-20T15:11:37;15.18;;;7.20;;
84796;SDS011;75028;51.374;21.078;2023-12-20T15:14:03;20.02;;;9.77;;
84796;SDS011;75028;51.374;21.078;2023-12-20T15:16:30;17.10;;;8.57;;
84796;SDS011;75028;51.374;21.078;2023-12-20T15:18:56;29.70;;;14.30;;
84796;SDS011;75028;51.374;21.078;2023-12-20T15:21:22;24.08;;;9.50;;